METAR Data
IDs: Format: Raw Decoded Include TAF

Data at: 1407 UTC 14 Dec 2019

PAPN 141356Z AUTO 10015KT 10SM CLR 00/M02 A2923 RMK AO2 PRESFR SLP901 T00001017 PWINO FZRANO $
PAPN 141256Z AUTO 10008KT 10SM CLR M01/M02 A2928 RMK AO2 SLP918 T10061017 PWINO FZRANO $
PAPN 141156Z AUTO 11008KT 10SM CLR 00/M01 A2931 RMK AO2 SLP926 70007 T00001006 10011 21011 58025 PWINO FZRANO $
PAPN 141056Z AUTO 11009KT 10SM CLR 00/00 A2933 RMK AO2 SLP934 T00000000 PWINO FZRANO $
PAPN 140956Z AUTO 13007KT 10SM CLR M01/M01 A2936 RMK AO2 SLP945 T10061011 PWINO FZRANO $
PAPN 140928Z AUTO 11008KT 8SM FEW002 M01/M01 A2937 RMK AO2 PWINO FZRANO $
PAPN 140912Z AUTO 11006KT 2 1/2SM BR SCT002 BKN035 M01/M01 A2938 RMK AO2 PWINO FZRANO $
PAPN 140756Z AUTO 11007KT 10SM OVC037 00/00 A2939 RMK AO2 SLP954 T00000000 400391006 PWINO FZRANO $
PAPN 140723Z AUTO 11006KT 5SM BR OVC037 M01/M01 A2941 RMK AO2 PWINO FZRANO $
PAPN 140714Z AUTO 11006KT 2 1/2SM BR BKN035 M01/M01 A2941 RMK AO2 PWINO FZRANO $
PAPN 140656Z AUTO 13006KT 8SM SCT002 SCT039 M01/M01 A2941 RMK AO2 SLP961 T10061006 PWINO FZRANO $
PAPN 140651Z AUTO 12005KT 4SM BR SCT002 M01/M01 A2941 RMK AO2 PWINO FZRANO $
PAPN 140646Z AUTO 13005KT 2SM BR BKN002 M01/M01 A2941 RMK AO2 PWINO FZRANO $
PAPN 140641Z AUTO 13006KT 1SM BR OVC002 00/M01 A2941 RMK AO2 PWINO FZRANO $
PAPN 140634Z AUTO 11006KT 1/2SM FG OVC002 01/00 A2941 RMK AO2 PWINO FZRANO $
PAPN 140627Z AUTO 11005KT 3/4SM BR OVC004 01/01 A2941 RMK AO2 PWINO FZRANO $
PAPN 140617Z AUTO 11006KT 1SM BR OVC004 01/01 A2941 RMK AO2 CIG 002V007 PWINO FZRANO $
PAPN 140610Z AUTO 11004KT 2 1/2SM BR OVC004 01/01 A2941 RMK AO2 CIG 003V007 PWINO FZRANO $
PAPN 140556Z AUTO 10006KT 10SM OVC006 01/01 A2941 RMK AO2 SLP960 T00110006 10033 20006 58013 PWINO FZRANO $
PAPN 140543Z AUTO 10005KT 10SM OVC006 01/01 A2941 RMK AO2 CIG 004V010 PWINO FZRANO $
PAPN 140510Z AUTO 11005KT 3SM BR OVC012 01/01 A2942 RMK AO2 PWINO FZRANO $
PAPN 140503Z AUTO 10004KT 1 3/4SM BR OVC012 01/01 A2943 RMK AO2 VIS 1 1/4V2 1/2 PWINO FZRANO $
PAPN 140456Z AUTO 13004KT 2SM BR OVC012 01/01 A2943 RMK AO2 SLP969 T00110011 PWINO FZRANO $
PAPN 140449Z AUTO 15003KT 3SM BR FEW003 OVC012 02/01 A2944 RMK AO2 PWINO FZRANO $
PAPN 140440Z AUTO 17004KT 2 1/2SM BR FEW003 OVC012 02/01 A2944 RMK AO2 PWINO FZRANO $
PAPN 140431Z AUTO 16003KT 1 3/4SM BR FEW003 OVC014 02/01 A2944 RMK AO2 PWINO FZRANO $
PAPN 140424Z AUTO 14003KT 1 3/4SM BR BKN014 OVC020 02/01 A2944 RMK AO2 PWINO FZRANO $
PAPN 140409Z AUTO 13004KT 8SM BKN014 OVC019 01/01 A2944 RMK AO2 PWINO FZRANO $
PAPN 140356Z AUTO 13004KT 9SM BKN016 OVC021 02/01 A2944 RMK AO2 SLP972 T00170011 PWINO FZRANO $
PAPN 140346Z AUTO 12005KT 6SM BR SCT010 OVC016 02/01 A2944 RMK AO2 PWINO FZRANO $
PAPN 140328Z AUTO 11003KT 3SM BR SCT007 OVC014 02/02 A2944 RMK AO2 PWINO FZRANO $
PAPN 140312Z AUTO 00000KT 2 1/2SM BR BKN009 OVC015 02/02 A2945 RMK AO2 CIG 005V011 PWINO FZRANO $
PAPN 140309Z AUTO 00000KT 3SM BR SCT007 BKN011 OVC015 02/02 A2945 RMK AO2 PWINO FZRANO $
PAPN 140256Z AUTO 00000KT 10SM FEW009 OVC017 02/02 A2945 RMK AO2 SLP973 T00220017 51001 PWINO FZRANO $
PAPN 140156Z AUTO 34003KT 8SM FEW004 BKN025 OVC033 02/02 A2945 RMK AO2 SLP973 T00220017 PWINO FZRANO $
PAPN 140121Z AUTO 32006KT 6SM BR FEW004 OVC015 03/03 A2945 RMK AO2 PWINO $
PAPN 140005Z AUTO 31007KT 1 1/4SM BR FEW005 BKN010 OVC014 03/03 A2945 RMK AO2 CIG 007V012 PWINO $
PAPN 132356Z AUTO 30007KT 1 3/4SM BR FEW004 OVC009 03/03 A2944 RMK AO2 VIS 1 1/4V3 CIG 007V013 SLP972 60003 T00330033 10039 20022 51010 PWINO $
PAPN 132348Z AUTO 29007KT 3SM BR OVC009 03/03 A2944 RMK AO2 CIG 004V013 PWINO $
PAPN 132346Z AUTO 29005KT 2 1/2SM BR SCT007 OVC011 03/03 A2944 RMK AO2 VIS 1V5 PWINO $
PAPN 132332Z AUTO 29009KT 3/4SM BR BKN007 OVC012 03/03 A2944 RMK AO2 CIG 004V009 PWINO $
PAPN 132256Z AUTO 26006KT 6SM BR SCT004 BKN012 OVC020 03/03 A2943 RMK AO2 SLP967 T00330033 PWINO $
PAPN 132245Z AUTO 26007KT 3SM BR FEW006 BKN012 OVC019 04/03 A2943 RMK AO2 PWINO $
PAPN 132232Z AUTO 29006KT 8SM BKN013 OVC026 04/03 A2942 RMK AO2 PWINO $
PAPN 132136Z AUTO 30008KT 1 1/2SM BR BKN004 BKN009 OVC014 03/03 A2941 RMK AO2 CIG 003V007 PWINO $
PAPN 132121Z AUTO 28006KT 1SM BR BKN006 OVC014 03/03 A2941 RMK AO2 CIG 003V011 PWINO $
PAPN 132111Z AUTO 27008KT 2 1/2SM BR BKN008 OVC013 03/03 A2940 RMK AO2 CIG 003V011 PWINO $
PAPN 132106Z AUTO 25006KT 4SM BR BKN008 OVC011 03/03 A2940 RMK AO2 CIG 004V009 PWINO $
PAPN 132010Z AUTO 21006KT 5SM BR SCT006 OVC013 02/02 A2939 RMK AO2 PWINO FZRANO $
PAPN 131956Z AUTO 21006KT 7SM OVC013 03/02 A2938 RMK AO2 SLP951 P0002 T00280022 PWINO $
PAPN 131856Z AUTO 22007KT 5SM BR OVC013 02/02 A2936 RMK AO2 SLP944 P0001 T00220022 PWINO FZRANO $
PAPN 131829Z AUTO 24006KT 6SM BR SCT004 OVC013 02/02 A2935 RMK AO2 P0001 PWINO FZRANO $
PAPN 131728Z AUTO 24005KT 1 3/4SM BR SCT004 BKN011 OVC022 02/02 A2932 RMK AO2 P0001 PWINO FZRANO $
PAPN 131556Z AUTO 24005KT 1/2SM FG OVC004 02/02 A2929 RMK AO2 SLP920 T00220017 PWINO FZRANO $
PAPN 131538Z AUTO 23005KT 1/2SM FG OVC004 02/02 A2928 RMK AO2 PWINO FZRANO $
PAPN 131529Z AUTO 23005KT 3/4SM BR OVC004 02/02 A2928 RMK AO2 PWINO FZRANO $
PAPN 131517Z AUTO 24004KT 1SM BR OVC004 02/02 A2928 RMK AO2 PWINO FZRANO $
PAPN 131506Z AUTO 23004KT 1 1/4SM BR BKN004 OVC012 02/02 A2927 RMK AO2 PWINO FZRANO $
PAPN 131456Z AUTO 23004KT 1SM BR BKN004 OVC014 02/02 A2927 RMK AO2 SLP913 T00170017 51016 PWINO FZRANO $
PAPN 131430Z AUTO 24004KT 1 3/4SM BR OVC004 02/02 A2927 RMK AO2 PWINO FZRANO $
PAPN 131356Z AUTO 24003KT 8SM OVC004 02/01 A2926 RMK AO2 SLP910 T00170011 PWINO FZRANO $
PAPN 131348Z AUTO 00000KT 8SM BKN004 OVC008 02/01 A2926 RMK AO2 PWINO FZRANO $
PAPN 131256Z AUTO 33003KT 7SM OVC006 02/01 A2924 RMK AO2 SLP903 T00170011 PWINO FZRANO $
PAPN 131225Z AUTO 32003KT 8SM OVC006 02/01 A2923 RMK AO2 PWINO FZRANO $
PAPN 131156Z AUTO 31003KT 6SM BR OVC004 01/01 A2922 RMK AO2 SLP897 P0001 60006 70006 T00110011 10017 20000 53018 PWINO FZRANO $
PAPN 131056Z AUTO 34005KT 6SM BR OVC004 02/01 A2920 RMK AO2 SLP891 P0004 T00170011 PWINO FZRANO $
PAPN 131038Z AUTO 34003KT 5SM BR BKN004 OVC033 01/01 A2920 RMK AO2 P0003 PWINO FZRANO $
PAPN 131029Z AUTO 03004KT 4SM BR SCT004 BKN030 OVC035 02/01 A2920 RMK AO2 P0002 PWINO FZRANO $
PAPN 130656Z AUTO 00000KT 9SM OVC044 00/M01 A2914 RMK AO2 SLP871 T00001006 PWINO FZRANO $
PAPN 130556Z AUTO 36005KT 8SM SCT075 BKN095 01/00 A2913 RMK AO2 SLP865 T00060000 10022 20000 51007 PWINO FZRANO $
PAPN 130456Z AUTO 30003KT 8SM BKN110 01/00 A2912 RMK AO2 SLP864 T00060000 PWINO FZRANO $
PAPN 130356Z AUTO 01003KT 9SM SCT080 OVC110 02/01 A2911 RMK AO2 SLP860 T00170011 PWINO FZRANO $
PAPN 130256Z AUTO 31004KT 8SM FEW065 OVC080 02/01 A2911 RMK AO2 SLP858 T00170011 53004 PWINO FZRANO $